Time;durP1;ratioP1;P1;durP2;ratioP2;P2;SDS_P1;SDS_P2;PMS_P1;PMS_P2;Temp;Humidity;BMP_temperature;BMP_pressure;BME280_temperature;BME280_humidity;BME280_pressure;Samples;Min_cycle;Max_cycle;Signal;HPM_P1;HPM_P2
2021/01/31 00:02:13;;;;;;;5.15;4.63;;;4.40;99.90;;;;;;5148766;27;20199;-76
2021/01/31 00:04:45;;;;;;;6.75;5.50;;;4.40;99.90;;;;;;5152772;27;20191;-76
2021/01/31 00:07:11;;;;;;;5.82;5.22;;;4.40;99.90;;;;;;5149265;27;20180;-76
2021/01/31 00:09:37;;;;;;;5.20;4.38;;;4.40;99.90;;;;;;5138322;27;20195;-73
2021/01/31 00:12:05;;;;;;;5.60;4.60;;;4.30;99.90;;;;;;5146182;27;20676;-77
2021/01/31 00:14:32;;;;;;;6.88;4.88;;;4.30;99.90;;;;;;5139409;27;20192;-77
2021/01/31 00:16:58;;;;;;;6.10;5.25;;;4.40;99.90;;;;;;5132140;27;20245;-76
2021/01/31 00:19:24;;;;;;;8.02;4.63;;;4.40;99.90;;;;;;5146040;27;20207;-75
2021/01/31 00:21:56;;;;;;;5.25;4.68;;;4.30;99.90;;;;;;5143783;27;20195;-76
2021/01/31 00:24:23;;;;;;;6.60;5.03;;;4.40;99.90;;;;;;5136693;27;20199;-75
2021/01/31 00:26:49;;;;;;;5.22;4.65;;;4.40;99.90;;;;;;5152070;27;20199;-76
2021/01/31 00:29:15;;;;;;;6.40;5.60;;;4.40;99.90;;;;;;5151350;27;20191;-76
2021/01/31 00:31:45;;;;;;;6.05;4.60;;;4.40;99.90;;;;;;5152809;27;20266;-76
2021/01/31 00:34:12;;;;;;;6.18;5.57;;;4.40;99.90;;;;;;5140093;27;20230;-76
2021/01/31 00:36:38;;;;;;;6.18;5.07;;;4.30;99.90;;;;;;5142151;27;20273;-76
2021/01/31 00:39:05;;;;;;;5.32;4.82;;;4.30;99.90;;;;;;5152978;27;20215;-76
2021/01/31 00:41:31;;;;;;;6.40;5.35;;;4.30;99.90;;;;;;5150134;27;20622;-76
2021/01/31 00:43:57;;;;;;;5.72;4.97;;;4.30;99.90;;;;;;5152693;27;20218;-76
2021/01/31 00:46:24;;;;;;;4.72;4.32;;;4.30;99.90;;;;;;5136650;27;20544;-76
2021/01/31 00:48:51;;;;;;;7.32;5.28;;;4.30;99.90;;;;;;5131828;27;20188;-76
2021/01/31 00:51:17;;;;;;;4.72;4.25;;;4.30;99.90;;;;;;5132192;27;20199;-76
2021/01/31 00:53:43;;;;;;;7.22;5.88;;;4.30;99.90;;;;;;5131982;27;20223;-76
2021/01/31 00:56:09;;;;;;;6.28;5.18;;;4.30;99.90;;;;;;5132980;27;20203;-76
2021/01/31 00:58:36;;;;;;;5.68;5.07;;;4.20;99.90;;;;;;5131699;27;20212;-76
2021/01/31 01:01:02;;;;;;;7.13;5.15;;;4.20;99.90;;;;;;5141983;27;20195;-76
2021/01/31 01:03:28;;;;;;;6.57;5.28;;;4.30;99.90;;;;;;5149065;27;20244;-76
2021/01/31 01:05:55;;;;;;;5.25;4.30;;;4.30;99.90;;;;;;5132081;27;20204;-76
2021/01/31 01:08:22;;;;;;;5.75;4.60;;;4.30;99.90;;;;;;5131618;27;20628;-76
2021/01/31 01:10:48;;;;;;;6.15;4.85;;;4.20;99.90;;;;;;5131853;27;20648;-76
2021/01/31 01:13:14;;;;;;;6.15;5.45;;;4.30;99.90;;;;;;5131647;27;20200;-76
2021/01/31 01:15:41;;;;;;;7.13;5.50;;;4.30;99.90;;;;;;5131311;27;20200;-76
2021/01/31 01:18:07;;;;;;;4.63;4.20;;;4.30;99.90;;;;;;5130764;27;20219;-76
2021/01/31 01:20:33;;;;;;;7.22;5.13;;;4.30;99.90;;;;;;5131100;28;20192;-77
2021/01/31 01:23:00;;;;;;;6.72;5.97;;;4.20;99.90;;;;;;5131570;28;20219;-76
2021/01/31 01:25:27;;;;;;;4.82;4.35;;;4.20;99.90;;;;;;5130737;28;20196;-76
2021/01/31 01:27:54;;;;;;;6.72;5.75;;;4.20;99.90;;;;;;5131151;28;20659;-77
2021/01/31 01:30:23;;;;;;;5.40;4.63;;;4.20;99.90;;;;;;5130643;27;20195;-77
2021/01/31 01:32:49;;;;;;;6.07;5.07;;;4.20;99.90;;;;;;5131609;28;20199;-77
2021/01/31 01:35:16;;;;;;;6.25;5.60;;;4.20;99.90;;;;;;5131545;28;20196;-77
2021/01/31 01:37:42;;;;;;;9.60;6.95;;;4.10;99.90;;;;;;5131912;27;20216;-76
2021/01/31 01:40:16;;;;;;;6.32;5.32;;;4.10;99.90;;;;;;5131390;28;20256;-76
2021/01/31 01:42:43;;;;;;;7.93;5.80;;;4.10;99.90;;;;;;5131246;28;20185;-77
2021/01/31 01:45:10;;;;;;;7.80;5.88;;;4.10;99.90;;;;;;5139212;27;20544;-77
2021/01/31 01:47:37;;;;;;;5.75;4.95;;;4.10;99.90;;;;;;5152200;27;20187;-75
2021/01/31 01:50:12;;;;;;;7.45;5.40;;;4.10;99.90;;;;;;5150002;27;20639;-75
2021/01/31 01:52:40;;;;;;;7.30;5.20;;;4.10;99.90;;;;;;5149209;27;20233;-75
2021/01/31 01:55:10;;;;;;;6.32;5.38;;;4.10;99.90;;;;;;5140371;27;20192;-75
2021/01/31 01:57:43;;;;;;;8.55;6.50;;;4.10;99.90;;;;;;5150184;27;20217;-75
2021/01/31 02:00:10;;;;;;;5.35;4.82;;;4.10;99.90;;;;;;5131335;28;20234;-75
2021/01/31 02:02:40;;;;;;;8.32;6.82;;;4.10;99.90;;;;;;5146670;27;20200;-75
2021/01/31 02:05:09;;;;;;;6.72;5.22;;;4.00;99.90;;;;;;5152274;27;20196;-76
2021/01/31 02:07:36;;;;;;;6.28;5.35;;;4.00;99.90;;;;;;5138409;27;20192;-77
2021/01/31 02:10:04;;;;;;;6.38;5.53;;;4.00;99.90;;;;;;5131112;27;20192;-77
2021/01/31 02:12:31;;;;;;;6.13;5.53;;;4.00;99.90;;;;;;5134230;27;20200;-76
2021/01/31 02:15:01;;;;;;;6.18;5.50;;;4.00;99.90;;;;;;5133271;27;20643;-76
2021/01/31 02:17:35;;;;;;;6.60;5.45;;;4.00;99.90;;;;;;5131495;28;20532;-76
2021/01/31 02:20:35;;;;;;;6.93;5.65;;;4.00;99.90;;;;;;5131427;27;20196;-75
2021/01/31 02:23:37;;;;;;;7.30;5.22;;;4.00;99.90;;;;;;5148969;27;20199;-76
2021/01/31 02:26:06;;;;;;;6.22;5.10;;;4.00;99.90;;;;;;5129168;27;20641;-76
2021/01/31 02:28:49;;;;;;;7.45;5.80;;;4.00;99.90;;;;;;5150538;27;20203;-76
2021/01/31 02:31:46;;;;;;;7.60;5.40;;;4.00;99.90;;;;;;5155264;27;20530;-76
2021/01/31 02:34:19;;;;;;;6.13;5.55;;;3.90;99.90;;;;;;5134710;27;20192;-76
2021/01/31 02:36:55;;;;;;;7.93;6.40;;;3.90;99.90;;;;;;5134610;27;20195;-75
2021/01/31 02:39:36;;;;;;;5.88;5.32;;;3.90;99.90;;;;;;5147482;27;20272;-76
2021/01/31 02:42:15;;;;;;;6.50;4.93;;;3.90;99.90;;;;;;5135503;27;20203;-76
2021/01/31 02:44:43;;;;;;;8.18;6.00;;;3.90;99.90;;;;;;5134303;27;20619;-75
2021/01/31 02:47:17;;;;;;;5.63;5.03;;;3.90;99.90;;;;;;5135099;27;20547;-75
2021/01/31 02:49:51;;;;;;;7.47;5.82;;;3.80;99.90;;;;;;5134374;27;20539;-75
2021/01/31 02:52:21;;;;;;;6.70;5.90;;;3.80;99.90;;;;;;5133574;27;20232;-75
2021/01/31 02:54:54;;;;;;;9.82;5.97;;;3.90;99.90;;;;;;5134081;27;20192;-76
2021/01/31 02:57:28;;;;;;;6.03;4.72;;;3.80;99.90;;;;;;5134523;27;20177;-75
2021/01/31 03:00:01;;;;;;;6.32;5.53;;;3.80;99.90;;;;;;5134350;27;20196;-76
2021/01/31 03:02:34;;;;;;;7.13;5.75;;;3.80;99.90;;;;;;5134196;27;20210;-76
2021/01/31 03:05:06;;;;;;;5.75;4.88;;;3.90;99.90;;;;;;5135442;27;20196;-76
2021/01/31 03:07:36;;;;;;;6.15;5.00;;;3.90;99.90;;;;;;5141884;27;20194;-76
2021/01/31 03:10:07;;;;;;;5.78;5.18;;;3.90;99.90;;;;;;5135262;27;20263;-76
2021/01/31 03:12:38;;;;;;;6.85;6.05;;;3.80;99.90;;;;;;5154928;27;20211;-76
2021/01/31 03:15:09;;;;;;;8.48;6.47;;;3.80;99.90;;;;;;5151496;27;20196;-77
2021/01/31 03:17:39;;;;;;;6.57;5.93;;;3.80;99.90;;;;;;5152283;27;20203;-76
2021/01/31 03:20:11;;;;;;;7.00;5.65;;;3.80;99.90;;;;;;5134284;27;20200;-76
2021/01/31 03:22:51;;;;;;;5.32;4.68;;;3.80;99.90;;;;;;5133755;27;20252;-76
2021/01/31 03:25:23;;;;;;;7.43;5.03;;;3.80;99.90;;;;;;5133735;27;20210;-76
2021/01/31 03:27:50;;;;;;;8.57;6.60;;;3.80;99.90;;;;;;5134159;27;20185;-77
2021/01/31 03:30:17;;;;;;;6.25;5.38;;;3.80;99.90;;;;;;5133647;27;20543;-77
2021/01/31 03:32:49;;;;;;;6.05;4.90;;;3.80;99.90;;;;;;5133961;27;20196;-76
2021/01/31 03:35:20;;;;;;;6.70;4.90;;;3.70;99.90;;;;;;5136943;27;20507;-77
2021/01/31 03:37:51;;;;;;;6.97;4.93;;;3.70;99.90;;;;;;5139286;27;20219;-76
2021/01/31 03:40:18;;;;;;;8.00;5.93;;;3.70;99.90;;;;;;5151707;27;20244;-77
2021/01/31 03:42:45;;;;;;;6.97;5.57;;;3.70;99.90;;;;;;5133354;27;20203;-77
2021/01/31 03:45:14;;;;;;;9.25;6.30;;;3.70;99.90;;;;;;5133108;27;20861;-76
2021/01/31 03:47:47;;;;;;;6.95;5.15;;;3.70;99.90;;;;;;5133307;27;20273;-77
2021/01/31 03:50:14;;;;;;;6.95;4.90;;;3.70;99.90;;;;;;5133375;27;20188;-77
2021/01/31 03:52:41;;;;;;;5.88;5.30;;;3.70;99.90;;;;;;5132919;27;20288;-76
2021/01/31 03:55:09;;;;;;;6.45;5.40;;;3.70;99.90;;;;;;5133297;27;20253;-76
2021/01/31 03:57:41;;;;;;;6.75;5.25;;;3.70;99.90;;;;;;5132847;27;20196;-76
2021/01/31 04:00:12;;;;;;;6.20;5.20;;;3.70;99.90;;;;;;5132700;27;20239;-77
2021/01/31 04:02:43;;;;;;;5.15;4.28;;;3.70;99.90;;;;;;5145729;27;20199;-77
2021/01/31 04:05:11;;;;;;;7.65;5.57;;;3.70;99.90;;;;;;5150986;27;20694;-77
2021/01/31 04:07:43;;;;;;;5.80;5.20;;;3.70;99.90;;;;;;5153431;27;20638;-77
2021/01/31 04:10:10;;;;;;;6.95;5.28;;;3.70;99.90;;;;;;5150461;27;20252;-76
2021/01/31 04:12:41;;;;;;;6.65;4.80;;;3.60;99.90;;;;;;5153747;27;20199;-77
2021/01/31 04:15:18;;;;;;;7.60;5.90;;;3.70;99.90;;;;;;5145766;27;20200;-76
2021/01/31 04:17:47;;;;;;;6.00;5.07;;;3.60;99.90;;;;;;5133414;27;20218;-76
2021/01/31 04:20:14;;;;;;;9.85;5.70;;;3.60;99.90;;;;;;5132440;27;20204;-76
2021/01/31 04:22:41;;;;;;;6.90;5.65;;;3.60;99.90;;;;;;5132447;27;20245;-76
2021/01/31 04:25:09;;;;;;;6.57;5.82;;;3.60;99.90;;;;;;5132625;27;20198;-76
2021/01/31 04:27:35;;;;;;;5.50;4.85;;;3.60;99.90;;;;;;5136503;27;20195;-76
2021/01/31 04:30:01;;;;;;;7.97;5.57;;;3.60;99.90;;;;;;5132182;27;20200;-78
2021/01/31 04:32:27;;;;;;;7.65;5.75;;;3.60;99.90;;;;;;5132735;27;20207;-77
2021/01/31 04:34:54;;;;;;;6.45;5.43;;;3.60;99.90;;;;;;5132130;27;20200;-78
2021/01/31 04:37:23;;;;;;;8.80;5.72;;;3.60;99.90;;;;;;5141489;27;20187;-78
2021/01/31 04:39:50;;;;;;;5.88;5.10;;;3.60;99.90;;;;;;5153235;27;20243;-78
2021/01/31 04:42:19;;;;;;;6.65;5.00;;;3.60;99.90;;;;;;5151899;27;20210;-77
2021/01/31 04:44:47;;;;;;;6.07;4.65;;;3.50;99.90;;;;;;5152928;27;20203;-76
2021/01/31 04:47:20;;;;;;;6.82;5.45;;;3.50;99.90;;;;;;5141327;27;20191;-77
2021/01/31 04:49:58;;;;;;;6.57;5.25;;;3.50;99.90;;;;;;5132481;27;20191;-78
2021/01/31 04:52:34;;;;;;;6.78;5.45;;;3.50;99.90;;;;;;5131160;27;20254;-77
2021/01/31 04:55:27;;;;;;;8.75;5.65;;;3.50;99.90;;;;;;5134498;27;20187;-78
2021/01/31 04:58:03;;;;;;;7.25;5.80;;;3.50;99.90;;;;;;5151338;27;20203;-77
2021/01/31 05:00:33;;;;;;;6.40;4.90;;;3.50;99.90;;;;;;5131929;27;20199;-78
2021/01/31 05:03:01;;;;;;;6.78;5.20;;;3.50;99.90;;;;;;5151372;27;20199;-77
2021/01/31 05:05:33;;;;;;;6.22;5.25;;;3.50;99.90;;;;;;5131539;27;20203;-76
2021/01/31 05:08:03;;;;;;;7.50;5.53;;;3.50;99.90;;;;;;5131680;27;20181;-76
2021/01/31 05:10:30;;;;;;;6.75;5.53;;;3.50;99.90;;;;;;5131848;27;20357;-76
2021/01/31 05:13:13;;;;;;;7.45;5.60;;;3.50;99.90;;;;;;5131832;27;20196;-76
2021/01/31 05:15:47;;;;;;;6.38;4.90;;;3.50;99.90;;;;;;5131289;28;20763;-76
2021/01/31 05:18:17;;;;;;;8.15;4.75;;;3.50;99.90;;;;;;5143057;27;20223;-76
2021/01/31 05:20:47;;;;;;;5.55;4.80;;;3.50;99.90;;;;;;5148034;27;20196;-76
2021/01/31 05:23:14;;;;;;;7.15;5.53;;;3.40;99.90;;;;;;5131433;27;20192;-75
2021/01/31 05:25:41;;;;;;;8.02;5.55;;;3.40;99.90;;;;;;5131357;28;20203;-75
2021/01/31 05:28:08;;;;;;;8.63;5.20;;;3.40;99.90;;;;;;5151011;27;20218;-77
2021/01/31 05:30:39;;;;;;;5.68;4.45;;;3.40;99.90;;;;;;5133414;27;20196;-76
2021/01/31 05:33:11;;;;;;;5.15;4.47;;;3.40;99.90;;;;;;5146185;27;20192;-76
2021/01/31 05:35:44;;;;;;;7.18;5.18;;;3.40;99.90;;;;;;5138412;27;20196;-76
2021/01/31 05:38:12;;;;;;;7.03;5.18;;;3.40;99.90;;;;;;5138574;27;20659;-76
2021/01/31 05:40:42;;;;;;;6.00;4.40;;;3.40;99.90;;;;;;5131471;27;20196;-76
2021/01/31 05:43:14;;;;;;;4.82;4.15;;;3.40;99.90;;;;;;5133982;27;20195;-76
2021/01/31 05:45:42;;;;;;;5.88;4.80;;;3.30;99.90;;;;;;5131358;27;20285;-76
2021/01/31 05:48:23;;;;;;;5.88;4.78;;;3.40;99.90;;;;;;5132410;27;20188;-76
2021/01/31 05:50:51;;;;;;;5.95;4.78;;;3.40;99.90;;;;;;5131618;27;20180;-76
2021/01/31 05:53:25;;;;;;;6.75;4.78;;;3.30;99.90;;;;;;5130838;27;20224;-75
2021/01/31 05:56:11;;;;;;;5.28;4.78;;;3.30;99.90;;;;;;5131101;27;20236;-78
2021/01/31 05:58:37;;;;;;;5.28;4.63;;;3.30;99.90;;;;;;5137142;27;20207;-77
2021/01/31 06:01:06;;;;;;;7.78;5.57;;;3.30;99.90;;;;;;5147562;27;20200;-80
2021/01/31 06:03:32;;;;;;;7.57;4.80;;;3.30;99.90;;;;;;5133565;27;20192;-80
2021/01/31 06:06:08;;;;;;;6.10;5.50;;;3.30;99.90;;;;;;5135298;27;20196;-78
2021/01/31 06:08:35;;;;;;;7.60;4.97;;;3.30;99.90;;;;;;5154334;27;20268;-79
2021/01/31 06:11:05;;;;;;;4.47;3.95;;;3.30;99.90;;;;;;5155736;27;20218;-79
2021/01/31 06:13:32;;;;;;;6.03;4.72;;;3.30;99.90;;;;;;5138955;27;20196;-79
2021/01/31 06:16:01;;;;;;;7.45;5.60;;;3.30;99.90;;;;;;5143768;27;20279;-77
2021/01/31 06:18:33;;;;;;;7.40;5.88;;;3.30;99.90;;;;;;5152848;27;20215;-77
2021/01/31 06:21:10;;;;;;;7.38;6.53;;;3.30;99.90;;;;;;5145469;27;20196;-78
2021/01/31 06:23:41;;;;;;;8.38;5.50;;;3.20;99.90;;;;;;5138631;27;20192;-77
2021/01/31 06:26:20;;;;;;;6.25;5.35;;;3.20;99.90;;;;;;5135212;27;20192;-77
2021/01/31 06:28:47;;;;;;;8.10;5.88;;;3.20;99.90;;;;;;5134591;27;20188;-75
2021/01/31 06:31:24;;;;;;;8.45;4.97;;;3.20;99.90;;;;;;5134853;27;20192;-75
2021/01/31 06:33:50;;;;;;;6.97;4.90;;;3.20;99.90;;;;;;5134660;27;20192;-75
2021/01/31 06:36:40;;;;;;;5.38;4.80;;;3.30;99.90;;;;;;5134847;27;20238;-76
2021/01/31 06:39:15;;;;;;;6.00;4.68;;;3.20;99.90;;;;;;5140906;27;20239;-76
2021/01/31 06:41:55;;;;;;;6.13;4.68;;;3.20;99.90;;;;;;5134719;27;20196;-76
2021/01/31 06:44:35;;;;;;;6.20;5.28;;;3.20;99.90;;;;;;5134593;27;20184;-76
2021/01/31 06:47:18;;;;;;;6.88;5.38;;;3.20;99.90;;;;;;5137061;27;20595;-76
2021/01/31 06:50:01;;;;;;;7.00;5.38;;;3.10;99.90;;;;;;5134698;27;20196;-77
2021/01/31 06:52:39;;;;;;;8.75;5.55;;;3.10;99.90;;;;;;5135517;27;20223;-77
2021/01/31 06:55:33;;;;;;;6.72;5.07;;;3.10;99.90;;;;;;5134126;27;20188;-77
2021/01/31 06:58:17;;;;;;;5.75;4.32;;;3.10;99.90;;;;;;5133720;27;20196;-77
2021/01/31 07:01:20;;;;;;;8.40;5.55;;;3.10;99.90;;;;;;5133853;27;20192;-77
2021/01/31 07:04:19;;;;;;;6.03;5.20;;;3.10;99.90;;;;;;5134464;27;20176;-77
2021/01/31 07:07:22;;;;;;;7.10;4.88;;;3.10;99.90;;;;;;5138975;27;20179;-77
2021/01/31 07:10:07;;;;;;;4.80;4.32;;;3.10;99.90;;;;;;5112099;27;20195;-77
2021/01/31 07:12:43;;;;;;;6.90;5.28;;;3.20;99.90;;;;;;5133092;27;20192;-77
2021/01/31 07:15:14;;;;;;;7.00;5.55;;;3.10;99.90;;;;;;5132322;27;20214;-78
2021/01/31 07:17:44;;;;;;;5.32;4.50;;;3.10;99.90;;;;;;5133418;27;20256;-76
2021/01/31 07:20:16;;;;;;;5.15;4.35;;;3.10;99.90;;;;;;5133651;27;20219;-75
2021/01/31 07:22:47;;;;;;;5.60;4.78;;;3.10;99.90;;;;;;5132626;27;20188;-75
2021/01/31 07:25:18;;;;;;;6.55;5.15;;;3.10;99.90;;;;;;5132838;27;20200;-75
2021/01/31 07:27:51;;;;;;;7.20;5.10;;;3.10;99.90;;;;;;5133998;27;20196;-74
2021/01/31 07:30:23;;;;;;;6.10;4.38;;;3.00;99.90;;;;;;5144782;27;20196;-73
2021/01/31 07:33:13;;;;;;;6.90;5.40;;;3.00;99.90;;;;;;5133449;27;20200;-74
2021/01/31 07:35:55;;;;;;;6.50;5.30;;;3.00;99.90;;;;;;5132725;27;20201;-73
2021/01/31 07:38:28;;;;;;;6.72;5.93;;;3.00;99.90;;;;;;5142392;27;20239;-73
2021/01/31 07:40:56;;;;;;;7.95;5.60;;;3.00;99.90;;;;;;5154099;27;20248;-73
2021/01/31 07:43:27;;;;;;;9.80;5.75;;;3.00;99.90;;;;;;5137903;27;20207;-73
2021/01/31 07:46:01;;;;;;;6.70;4.85;;;3.00;99.90;;;;;;5149444;27;20180;-73
2021/01/31 07:48:39;;;;;;;7.28;5.35;;;2.90;99.90;;;;;;5148402;27;20188;-76
2021/01/31 07:51:08;;;;;;;6.40;5.07;;;2.90;99.90;;;;;;5133119;27;20231;-72
2021/01/31 07:53:36;;;;;;;8.68;5.25;;;2.90;99.90;;;;;;5132881;27;20227;-72
2021/01/31 07:56:23;;;;;;;5.53;5.03;;;3.00;99.90;;;;;;5132820;27;20196;-73
2021/01/31 07:58:50;;;;;;;6.63;5.07;;;3.20;99.90;;;;;;5141449;27;20215;-73
2021/01/31 08:01:48;;;;;;;8.32;6.50;;;3.20;99.90;;;;;;5153448;27;20209;-72
2021/01/31 08:04:48;;;;;;;4.75;4.15;;;3.30;99.90;;;;;;5141846;27;20538;-74
2021/01/31 08:07:48;;;;;;;5.93;4.57;;;3.50;99.90;;;;;;5049787;28;20206;-76
2021/01/31 08:10:41;;;;;;;6.65;5.45;;;3.40;99.90;;;;;;5065892;28;20209;-73
2021/01/31 08:13:11;;;;;;;6.57;5.85;;;3.30;99.90;;;;;;5127228;27;20207;-73
2021/01/31 08:15:41;;;;;;;7.55;5.30;;;3.30;99.90;;;;;;5147289;27;20223;-74
2021/01/31 08:18:18;;;;;;;8.82;6.43;;;3.30;99.90;;;;;;5140090;27;20682;-74
2021/01/31 08:20:47;;;;;;;7.35;5.47;;;3.20;99.90;;;;;;5132490;27;20176;-74
2021/01/31 08:23:45;;;;;;;6.70;5.82;;;3.20;99.90;;;;;;5133430;27;20207;-74
2021/01/31 08:26:12;;;;;;;7.10;5.85;;;3.20;99.90;;;;;;5142853;27;20206;-74
2021/01/31 08:28:54;;;;;;;10.60;6.35;;;3.20;99.90;;;;;;5148754;27;20213;-74
2021/01/31 08:31:20;;;;;;;7.45;5.88;;;3.20;99.90;;;;;;5152751;27;20180;-74
2021/01/31 08:33:59;;;;;;;11.65;7.60;;;3.10;99.90;;;;;;5150494;27;20650;-74
2021/01/31 08:36:28;;;;;;;9.15;6.72;;;3.10;99.90;;;;;;5144964;27;20179;-74
2021/01/31 08:38:56;;;;;;;10.23;6.45;;;3.10;99.90;;;;;;5142817;27;20212;-74
2021/01/31 08:41:39;;;;;;;8.48;5.72;;;3.10;99.90;;;;;;5140620;27;20207;-74
2021/01/31 08:44:44;;;;;;;13.07;7.70;;;3.10;99.90;;;;;;5132170;27;20195;-74
2021/01/31 08:47:12;;;;;;;11.60;7.20;;;3.10;99.90;;;;;;5151299;27;20288;-74
2021/01/31 08:49:39;;;;;;;9.18;6.40;;;3.00;99.90;;;;;;5132190;27;20203;-74
2021/01/31 08:52:10;;;;;;;11.57;7.57;;;3.10;99.90;;;;;;5145285;27;21451;-74
2021/01/31 08:54:36;;;;;;;11.50;7.47;;;3.00;99.90;;;;;;5152366;27;20191;-74
2021/01/31 08:57:05;;;;;;;11.38;7.65;;;3.10;99.90;;;;;;5150867;27;20195;-74
2021/01/31 08:59:34;;;;;;;6.88;6.15;;;3.10;99.90;;;;;;5131597;27;20573;-74
2021/01/31 09:02:19;;;;;;;11.27;7.07;;;3.20;99.90;;;;;;5134549;27;20196;-75
2021/01/31 09:04:50;;;;;;;8.10;6.53;;;3.20;99.90;;;;;;5152736;27;20195;-76
2021/01/31 09:07:23;;;;;;;10.35;6.45;;;3.30;99.90;;;;;;5148714;27;20180;-76
2021/01/31 09:09:54;;;;;;;8.65;6.38;;;3.40;99.90;;;;;;5132225;27;20184;-76
2021/01/31 09:12:23;;;;;;;8.70;6.65;;;3.50;99.90;;;;;;5132870;27;20188;-75
2021/01/31 09:14:52;;;;;;;8.77;6.47;;;3.60;99.90;;;;;;5145064;27;20191;-77
2021/01/31 09:17:24;;;;;;;10.13;7.10;;;3.60;99.90;;;;;;5143203;27;20620;-77
2021/01/31 09:20:07;;;;;;;10.25;7.50;;;3.60;99.90;;;;;;5130319;27;20204;-77
2021/01/31 09:22:34;;;;;;;8.40;7.07;;;3.70;99.90;;;;;;5131405;27;20192;-76
2021/01/31 09:25:03;;;;;;;9.48;6.65;;;3.80;99.90;;;;;;5134567;27;20194;-77
2021/01/31 09:27:30;;;;;;;13.43;8.18;;;3.80;99.90;;;;;;5131224;27;20196;-77
2021/01/31 09:30:00;;;;;;;8.15;5.72;;;3.90;99.90;;;;;;5138301;27;20195;-77
2021/01/31 09:32:30;;;;;;;8.55;7.18;;;3.90;99.90;;;;;;5152393;27;20568;-77
2021/01/31 09:34:59;;;;;;;11.63;8.57;;;3.90;99.90;;;;;;5140141;27;20636;-77
2021/01/31 09:37:28;;;;;;;12.85;8.40;;;3.90;99.90;;;;;;5132416;27;20196;-76
2021/01/31 09:39:57;;;;;;;10.93;7.53;;;4.00;99.90;;;;;;5154012;27;20215;-76
2021/01/31 09:42:28;;;;;;;10.52;7.68;;;3.90;99.90;;;;;;5156759;27;20635;-76
2021/01/31 09:44:57;;;;;;;10.40;6.85;;;3.90;99.90;;;;;;5145946;27;20620;-77
2021/01/31 09:47:24;;;;;;;10.13;7.90;;;3.90;99.90;;;;;;5136818;27;20192;-77
2021/01/31 09:49:53;;;;;;;8.52;7.55;;;3.90;99.90;;;;;;5137402;27;20188;-76
2021/01/31 09:52:20;;;;;;;8.88;6.97;;;3.90;99.90;;;;;;5136217;27;20224;-77
2021/01/31 09:54:47;;;;;;;10.85;7.20;;;4.00;99.90;;;;;;5137789;27;20196;-77
2021/01/31 09:57:21;;;;;;;13.45;8.93;;;3.90;99.90;;;;;;5157030;27;20199;-76
2021/01/31 09:59:48;;;;;;;7.78;6.47;;;4.00;99.90;;;;;;5141552;27;20215;-76
2021/01/31 10:02:19;;;;;;;8.20;6.65;;;3.90;99.90;;;;;;5135442;27;20204;-76
2021/01/31 10:04:53;;;;;;;7.32;5.80;;;3.90;99.90;;;;;;5135480;27;20185;-76
2021/01/31 10:07:30;;;;;;;8.77;7.22;;;3.90;99.90;;;;;;5134987;27;20203;-77
2021/01/31 10:09:56;;;;;;;9.25;6.20;;;3.90;99.90;;;;;;5135396;27;20192;-76
2021/01/31 10:12:26;;;;;;;10.40;7.70;;;4.00;99.90;;;;;;5150614;27;20191;-76
2021/01/31 10:14:54;;;;;;;10.68;6.90;;;4.00;99.90;;;;;;5154014;27;20184;-77
2021/01/31 10:17:35;;;;;;;7.78;6.90;;;4.00;99.90;;;;;;5141885;27;20339;-77
2021/01/31 10:20:32;;;;;;;7.07;5.65;;;4.00;99.90;;;;;;5172092;27;20203;-76
2021/01/31 10:23:03;;;;;;;10.00;6.97;;;4.00;99.90;;;;;;5157977;27;20259;-74
2021/01/31 10:25:29;;;;;;;8.48;7.63;;;4.00;99.90;;;;;;5176715;27;20191;-74
2021/01/31 10:27:58;;;;;;;11.60;8.15;;;4.00;99.90;;;;;;5176606;27;20599;-74
2021/01/31 10:30:28;;;;;;;9.93;7.60;;;3.90;99.90;;;;;;5134547;27;20188;-75
2021/01/31 10:32:55;;;;;;;10.90;8.60;;;3.90;99.90;;;;;;5139475;27;20551;-77
2021/01/31 10:35:31;;;;;;;9.27;7.32;;;3.90;99.90;;;;;;5152276;27;20218;-76
2021/01/31 10:38:00;;;;;;;12.00;9.55;;;3.90;99.90;;;;;;5169304;27;20201;-75
2021/01/31 10:40:27;;;;;;;8.77;6.82;;;3.90;99.90;;;;;;5146363;27;20224;-75
2021/01/31 10:42:53;;;;;;;10.35;7.00;;;3.90;99.90;;;;;;5145058;27;20187;-76
2021/01/31 10:45:24;;;;;;;9.52;6.95;;;3.80;99.90;;;;;;5143320;27;20255;-76
2021/01/31 10:47:50;;;;;;;8.10;7.10;;;3.80;99.90;;;;;;5137153;27;20279;-75
2021/01/31 10:50:18;;;;;;;10.20;6.93;;;3.80;99.90;;;;;;5145716;27;20248;-74
2021/01/31 10:52:45;;;;;;;7.93;6.85;;;3.80;99.90;;;;;;5141370;27;20580;-74
2021/01/31 10:55:13;;;;;;;9.27;6.68;;;3.80;99.90;;;;;;5164113;27;20211;-74
2021/01/31 10:57:39;;;;;;;7.88;5.93;;;3.80;99.90;;;;;;5140379;27;20231;-74
2021/01/31 11:00:08;;;;;;;9.20;6.65;;;3.90;99.90;;;;;;5164878;27;20215;-76
2021/01/31 11:02:34;;;;;;;7.78;6.80;;;3.90;99.90;;;;;;5160371;27;20706;-76
2021/01/31 11:05:00;;;;;;;9.32;6.82;;;3.90;99.90;;;;;;5165079;27;20192;-77
2021/01/31 11:07:27;;;;;;;9.73;7.40;;;3.90;99.90;;;;;;5158764;27;20190;-75
2021/01/31 11:09:53;;;;;;;10.07;7.28;;;4.00;99.90;;;;;;5142346;27;20192;-74
2021/01/31 11:12:20;;;;;;;8.75;7.75;;;4.00;99.90;;;;;;5134966;27;20208;-74
2021/01/31 11:14:46;;;;;;;7.95;7.00;;;4.00;99.90;;;;;;5138150;27;20211;-74
2021/01/31 11:17:13;;;;;;;13.07;7.22;;;3.90;99.90;;;;;;5139220;27;20246;-75
2021/01/31 11:19:39;;;;;;;10.30;8.27;;;3.80;99.90;;;;;;5142979;27;20207;-74
2021/01/31 11:22:05;;;;;;;11.48;7.85;;;3.80;99.90;;;;;;5142598;27;20208;-76
2021/01/31 11:24:34;;;;;;;11.57;7.85;;;3.90;99.90;;;;;;5132702;27;20196;-75
2021/01/31 11:27:01;;;;;;;9.57;7.38;;;3.90;99.90;;;;;;5137656;27;20199;-76
2021/01/31 11:29:28;;;;;;;11.40;8.05;;;3.90;99.90;;;;;;5143557;27;20195;-74
2021/01/31 11:31:55;;;;;;;10.98;6.93;;;3.80;99.90;;;;;;5145925;27;20204;-75
2021/01/31 11:34:22;;;;;;;9.10;7.00;;;4.00;99.90;;;;;;5147576;27;20251;-75
2021/01/31 11:36:48;;;;;;;10.15;8.45;;;4.00;99.90;;;;;;5151572;27;20627;-75
2021/01/31 11:39:14;;;;;;;10.85;8.45;;;3.90;99.90;;;;;;5144679;27;20216;-75
2021/01/31 11:41:41;;;;;;;7.55;6.25;;;3.90;99.90;;;;;;5137467;27;20647;-74
2021/01/31 11:44:08;;;;;;;11.23;8.13;;;3.90;99.90;;;;;;5138837;27;20196;-74
2021/01/31 11:46:36;;;;;;;11.98;8.13;;;4.00;99.90;;;;;;5138141;27;20215;-74
2021/01/31 11:49:03;;;;;;;9.05;6.80;;;3.90;99.90;;;;;;5153904;27;20554;-75
2021/01/31 11:51:30;;;;;;;9.48;8.10;;;4.00;99.90;;;;;;5148800;27;20206;-76
2021/01/31 11:53:57;;;;;;;9.93;7.50;;;4.00;99.90;;;;;;5146220;27;20223;-75
2021/01/31 11:56:23;;;;;;;9.02;6.78;;;4.10;99.90;;;;;;5134946;27;20192;-75
2021/01/31 11:58:49;;;;;;;10.23;7.57;;;4.20;99.90;;;;;;5142409;27;20211;-75
2021/01/31 12:01:16;;;;;;;8.43;6.10;;;4.10;99.90;;;;;;5152569;27;20260;-75
2021/01/31 12:03:44;;;;;;;8.20;6.75;;;4.10;99.90;;;;;;5134451;27;20237;-75
2021/01/31 12:06:11;;;;;;;9.05;6.60;;;4.10;99.90;;;;;;5132020;27;20706;-75
2021/01/31 12:08:38;;;;;;;9.68;6.78;;;4.00;99.90;;;;;;5132827;27;20344;-76
2021/01/31 12:11:04;;;;;;;9.65;7.50;;;4.00;99.90;;;;;;5134346;27;20195;-75
2021/01/31 12:13:31;;;;;;;9.35;6.50;;;3.90;99.90;;;;;;5135091;27;20200;-74
2021/01/31 12:15:57;;;;;;;9.02;7.47;;;3.90;99.90;;;;;;5131394;27;20200;-74
2021/01/31 12:18:23;;;;;;;8.50;7.15;;;3.90;99.90;;;;;;5132096;27;20221;-75
2021/01/31 12:20:51;;;;;;;8.93;6.57;;;3.90;99.90;;;;;;5137097;27;20644;-74
2021/01/31 12:23:17;;;;;;;6.80;6.00;;;3.90;99.90;;;;;;5134613;27;20204;-74
2021/01/31 12:25:43;;;;;;;9.18;5.50;;;3.90;99.90;;;;;;5133847;27;20222;-76
2021/01/31 12:28:10;;;;;;;8.32;6.88;;;3.90;99.90;;;;;;5134657;27;20196;-74
2021/01/31 12:30:36;;;;;;;7.35;6.20;;;3.80;99.90;;;;;;5131663;27;20203;-74
2021/01/31 12:33:04;;;;;;;8.85;5.45;;;3.80;99.90;;;;;;5141432;27;20200;-74
2021/01/31 12:35:31;;;;;;;7.32;6.57;;;3.80;99.90;;;;;;5134137;27;20197;-75
2021/01/31 12:37:59;;;;;;;8.25;6.57;;;3.90;99.90;;;;;;5133195;27;20196;-73
2021/01/31 12:40:28;;;;;;;7.90;6.30;;;3.90;99.90;;;;;;5136688;27;20540;-73
2021/01/31 12:42:54;;;;;;;7.15;6.38;;;3.80;99.90;;;;;;5141215;27;20206;-76
2021/01/31 12:45:22;;;;;;;8.40;6.88;;;3.80;99.90;;;;;;5137758;27;20192;-76
2021/01/31 12:47:49;;;;;;;10.13;5.93;;;4.00;99.90;;;;;;5136141;27;20209;-76
2021/01/31 12:50:18;;;;;;;8.85;6.80;;;3.90;99.90;;;;;;5135709;27;20195;-76
2021/01/31 12:52:44;;;;;;;7.65;5.63;;;3.80;99.90;;;;;;5134997;27;20223;-75
2021/01/31 12:55:13;;;;;;;8.38;5.90;;;3.90;99.90;;;;;;5147525;27;20191;-76
2021/01/31 12:57:39;;;;;;;7.30;5.90;;;3.90;99.90;;;;;;5150124;27;20196;-74
2021/01/31 13:00:08;;;;;;;9.60;6.13;;;3.90;99.90;;;;;;5148235;27;20220;-74
2021/01/31 13:02:35;;;;;;;7.63;6.20;;;3.90;99.90;;;;;;5145533;27;20215;-74
2021/01/31 13:05:01;;;;;;;8.70;6.50;;;3.80;99.90;;;;;;5150311;27;20334;-73
2021/01/31 13:07:27;;;;;;;8.98;5.97;;;3.90;99.90;;;;;;5141335;27;20283;-74
2021/01/31 13:09:53;;;;;;;9.13;6.53;;;3.90;99.90;;;;;;5131137;27;20192;-74
2021/01/31 13:12:21;;;;;;;11.10;6.63;;;3.90;99.90;;;;;;5139218;27;20202;-74
2021/01/31 13:14:47;;;;;;;9.18;5.45;;;3.90;99.90;;;;;;5130000;27;20204;-74
2021/01/31 13:17:13;;;;;;;8.48;5.53;;;4.00;99.90;;;;;;5130570;27;20196;-74